createdAt,value
2023-08-05T00:01:53.455Z,100.00
2023-08-05T00:04:21.492Z,100.00
2023-08-05T00:06:49.555Z,100.00
2023-08-05T00:09:17.496Z,100.00
2023-08-05T00:11:45.924Z,100.00
2023-08-05T00:14:13.661Z,100.00
2023-08-05T00:16:41.528Z,100.00
2023-08-05T00:19:10.744Z,100.00
2023-08-05T00:21:38.718Z,100.00
2023-08-05T00:24:06.923Z,100.00
2023-08-05T00:26:34.696Z,100.00
2023-08-05T00:29:03.992Z,100.00
2023-08-05T00:31:31.817Z,100.00
2023-08-05T00:33:59.900Z,100.00
2023-08-05T00:36:29.253Z,100.00
2023-08-05T00:38:57.051Z,100.00
2023-08-05T00:41:24.813Z,100.00
2023-08-05T00:43:53.397Z,100.00
2023-08-05T00:46:24.094Z,100.00
2023-08-05T00:48:53.095Z,100.00
2023-08-05T00:51:22.289Z,100.00
2023-08-05T00:53:52.619Z,100.00
2023-08-05T00:56:20.488Z,100.00
2023-08-05T00:58:48.460Z,100.00
2023-08-05T01:01:16.425Z,100.00
2023-08-05T01:03:44.539Z,100.00
2023-08-05T01:06:14.024Z,100.00
2023-08-05T01:08:42.502Z,100.00
2023-08-05T01:11:12.598Z,100.00
2023-08-05T01:13:41.296Z,100.00
2023-08-05T01:16:09.348Z,100.00
2023-08-05T01:18:40.161Z,100.00
2023-08-05T01:21:14.975Z,100.00
2023-08-05T01:23:57.422Z,100.00
2023-08-05T01:26:26.622Z,100.00
2023-08-05T01:28:55.720Z,100.00
2023-08-05T01:31:24.462Z,100.00
2023-08-05T01:33:52.874Z,100.00
2023-08-05T01:36:22.183Z,100.00
2023-08-05T01:38:50.354Z,100.00
2023-08-05T01:41:18.330Z,100.00
2023-08-05T01:43:47.537Z,100.00
2023-08-05T01:46:16.590Z,100.00
2023-08-05T01:48:44.858Z,100.00
2023-08-05T01:51:12.783Z,100.00
2023-08-05T01:53:40.649Z,100.00
2023-08-05T01:56:08.405Z,100.00
2023-08-05T01:58:36.793Z,100.00
2023-08-05T02:01:06.172Z,100.00
2023-08-05T02:03:34.862Z,100.00
2023-08-05T02:06:04.478Z,100.00
2023-08-05T02:08:32.296Z,100.00
2023-08-05T02:11:00.010Z,100.00
2023-08-05T02:13:27.788Z,100.00
2023-08-05T02:15:55.673Z,100.00
2023-08-05T02:18:24.858Z,100.00
2023-08-05T02:20:52.580Z,100.00
2023-08-05T02:23:20.339Z,100.00
2023-08-05T02:25:48.157Z,100.00
2023-08-05T02:28:16.517Z,100.00
2023-08-05T02:30:44.492Z,100.00
2023-08-05T02:33:12.247Z,100.00
2023-08-05T02:35:41.912Z,100.00
2023-08-05T02:38:09.700Z,100.00
2023-08-05T02:40:37.806Z,100.00
2023-08-05T02:43:05.616Z,100.00
2023-08-05T02:45:33.950Z,100.00
2023-08-05T02:48:02.764Z,100.00
2023-08-05T02:50:31.182Z,100.00
2023-08-05T02:53:00.284Z,100.00
2023-08-05T02:55:29.347Z,100.00
2023-08-05T02:57:57.105Z,100.00
2023-08-05T03:00:25.010Z,100.00
2023-08-05T03:02:53.182Z,100.00
2023-08-05T03:05:21.339Z,100.00
2023-08-05T03:07:49.251Z,100.00
2023-08-05T03:10:18.636Z,100.00
2023-08-05T03:12:48.263Z,100.00
2023-08-05T03:15:16.565Z,100.00
2023-08-05T03:17:44.823Z,100.00
2023-08-05T03:20:24.802Z,100.00
2023-08-05T03:22:55.238Z,100.00
2023-08-05T03:25:27.751Z,100.00
2023-08-05T03:27:59.872Z,100.00
2023-08-05T03:30:30.112Z,100.00
2023-08-05T03:32:59.486Z,100.00
2023-08-05T03:35:30.514Z,100.00
2023-08-05T03:37:59.307Z,100.00
2023-08-05T03:40:28.842Z,100.00
2023-08-05T03:42:56.729Z,100.00
2023-08-05T03:45:25.396Z,100.00
2023-08-05T03:47:55.063Z,100.00
2023-08-05T03:50:24.141Z,100.00
2023-08-05T03:52:54.250Z,100.00
2023-08-05T03:55:22.569Z,100.00
2023-08-05T03:57:52.015Z,100.00
2023-08-05T04:00:19.979Z,100.00
2023-08-05T04:02:48.503Z,100.00
2023-08-05T04:05:16.759Z,100.00
2023-08-05T04:07:47.252Z,100.00
2023-08-05T04:10:15.023Z,100.00
2023-08-05T04:12:42.815Z,100.00
2023-08-05T04:15:14.703Z,100.00
2023-08-05T04:17:45.469Z,100.00
2023-08-05T04:20:14.528Z,100.00
2023-08-05T04:22:42.540Z,100.00
2023-08-05T04:25:12.451Z,100.00
2023-08-05T04:27:40.154Z,100.00
2023-08-05T04:30:09.310Z,100.00
2023-08-05T04:32:40.365Z,100.00
2023-08-05T04:35:09.047Z,100.00
2023-08-05T04:37:36.838Z,100.00
2023-08-05T04:40:05.024Z,100.00
2023-08-05T04:42:33.209Z,100.00
2023-08-05T04:45:01.592Z,100.00
2023-08-05T04:47:29.491Z,100.00
2023-08-05T04:49:59.208Z,100.00
2023-08-05T04:52:27.192Z,100.00
2023-08-05T04:54:55.180Z,100.00
2023-08-05T04:57:22.920Z,100.00
2023-08-05T04:59:50.666Z,100.00
2023-08-05T05:02:18.635Z,100.00
2023-08-05T05:04:46.434Z,100.00
2023-08-05T05:07:15.785Z,100.00
2023-08-05T05:09:43.637Z,100.00
2023-08-05T05:12:11.531Z,100.00
2023-08-05T05:14:44.645Z,100.00
2023-08-05T05:17:12.693Z,100.00
2023-08-05T05:19:40.569Z,100.00
2023-08-05T05:22:08.699Z,100.00
2023-08-05T05:24:38.331Z,100.00
2023-08-05T05:27:06.658Z,100.00
2023-08-05T05:29:37.077Z,100.00
2023-08-05T05:32:07.821Z,100.00
2023-08-05T05:34:37.821Z,100.00
2023-08-05T05:37:08.455Z,100.00
2023-08-05T05:39:41.033Z,100.00
2023-08-05T05:42:12.170Z,100.00
2023-08-05T05:44:42.310Z,100.00
2023-08-05T05:47:13.157Z,100.00
2023-08-05T05:49:42.945Z,100.00
2023-08-05T05:52:15.113Z,100.00
2023-08-05T05:54:47.686Z,100.00
2023-08-05T05:57:16.568Z,100.00
2023-08-05T05:59:45.386Z,100.00
2023-08-05T06:02:14.022Z,100.00
2023-08-05T06:04:43.767Z,100.00
2023-08-05T06:07:12.072Z,100.00
2023-08-05T06:09:40.416Z,100.00
2023-08-05T06:12:11.631Z,100.00
2023-08-05T06:14:39.605Z,100.00
2023-08-05T06:17:08.190Z,100.00
2023-08-05T06:19:36.063Z,100.00
2023-08-05T06:22:03.785Z,100.00
2023-08-05T06:24:31.769Z,100.00
2023-08-05T06:26:59.688Z,100.00
2023-08-05T06:29:29.300Z,100.00
2023-08-05T06:31:57.018Z,100.00
2023-08-05T06:34:27.085Z,100.00
2023-08-05T06:36:56.731Z,100.00
2023-08-05T06:39:26.506Z,100.00
2023-08-05T06:41:55.807Z,100.00
2023-08-05T06:44:32.482Z,100.00
2023-08-05T06:47:03.646Z,100.00
2023-08-05T06:49:36.607Z,100.00
2023-08-05T06:52:07.778Z,100.00
2023-08-05T06:54:37.258Z,100.00
2023-08-05T06:57:07.995Z,100.00
2023-08-05T06:59:39.349Z,100.00
2023-08-05T07:02:09.520Z,100.00
2023-08-05T07:04:38.973Z,100.00
2023-08-05T07:07:09.426Z,100.00
2023-08-05T07:09:37.349Z,100.00
2023-08-05T07:12:05.573Z,100.00
2023-08-05T07:14:34.776Z,100.00
2023-08-05T07:17:04.088Z,100.00
2023-08-05T07:19:31.810Z,100.00
2023-08-05T07:21:59.488Z,100.00
2023-08-05T07:24:27.271Z,100.00
2023-08-05T07:26:55.121Z,100.00
2023-08-05T07:29:22.887Z,100.00
2023-08-05T07:31:51.345Z,100.00
2023-08-05T07:34:21.489Z,100.00
2023-08-05T07:36:49.224Z,100.00
2023-08-05T07:39:17.221Z,100.00
2023-08-05T07:41:45.145Z,100.00
2023-08-05T07:44:13.912Z,100.00
2023-08-05T07:46:42.729Z,100.00
2023-08-05T07:49:12.733Z,100.00
2023-08-05T07:51:42.611Z,100.00
2023-08-05T07:54:10.521Z,100.00
2023-08-05T07:56:40.700Z,100.00
2023-08-05T07:59:08.411Z,100.00
2023-08-05T08:01:37.325Z,100.00
2023-08-05T08:04:08.434Z,100.00
2023-08-05T08:06:36.297Z,100.00
2023-08-05T08:09:05.437Z,100.00
2023-08-05T08:11:33.211Z,100.00
2023-08-05T08:14:00.957Z,100.00
2023-08-05T08:16:29.356Z,100.00
2023-08-05T08:18:57.151Z,98.19
2023-08-05T08:21:24.905Z,98.74
2023-08-05T08:23:52.783Z,100.00
2023-08-05T08:26:22.514Z,100.00
2023-08-05T08:28:50.182Z,99.12
2023-08-05T08:31:18.013Z,98.76
2023-08-05T08:33:46.368Z,98.11
2023-08-05T08:36:14.365Z,94.98
2023-08-05T08:38:42.090Z,95.21
2023-08-05T08:41:09.966Z,88.52
2023-08-05T08:43:39.861Z,91.50
2023-08-05T08:46:08.843Z,91.43
2023-08-05T08:48:38.276Z,88.57
2023-08-05T08:51:06.084Z,87.47
2023-08-05T08:53:34.142Z,88.36
2023-08-05T08:56:03.169Z,89.67
2023-08-05T08:58:31.391Z,87.78
2023-08-05T09:01:01.263Z,88.73
2023-08-05T09:03:32.106Z,86.45
2023-08-05T09:06:00.611Z,87.19
2023-08-05T09:08:30.132Z,88.09
2023-08-05T09:10:58.145Z,87.45
2023-08-05T09:13:25.947Z,86.42
2023-08-05T09:15:56.828Z,83.22
2023-08-05T09:18:26.323Z,83.10
2023-08-05T09:20:54.198Z,82.18
2023-08-05T09:23:22.132Z,83.54
2023-08-05T09:25:50.941Z,83.02
2023-08-05T09:28:32.637Z,81.81
2023-08-05T09:31:16.375Z,79.34
2023-08-05T09:33:46.114Z,83.84
2023-08-05T09:36:15.809Z,81.23
2023-08-05T09:38:46.192Z,77.86
2023-08-05T09:41:14.379Z,78.87
2023-08-05T09:43:46.835Z,79.14
2023-08-05T09:46:15.532Z,79.10
2023-08-05T09:48:46.011Z,76.20
2023-08-05T09:51:17.492Z,81.05
2023-08-05T09:53:47.499Z,79.86
2023-08-05T09:56:19.986Z,78.70
2023-08-05T09:58:49.010Z,75.65
2023-08-05T10:01:19.275Z,75.64
2023-08-05T10:03:50.755Z,77.65
2023-08-05T10:06:19.249Z,74.77
2023-08-05T10:08:48.203Z,67.40
2023-08-05T10:11:16.693Z,69.12
2023-08-05T10:13:47.054Z,65.03
2023-08-05T10:16:15.258Z,62.39
2023-08-05T10:18:43.113Z,61.67
2023-08-05T10:21:12.189Z,59.06
2023-08-05T10:23:40.165Z,61.11
2023-08-05T10:26:08.111Z,61.51
2023-08-05T10:28:44.081Z,62.50
2023-08-05T10:31:26.399Z,62.63
2023-08-05T10:34:10.023Z,63.31
2023-08-05T10:36:46.930Z,65.10
2023-08-05T10:39:43.558Z,64.33
2023-08-05T10:42:38.734Z,66.42
2023-08-05T10:45:07.492Z,60.86
2023-08-05T10:47:35.999Z,62.17
2023-08-05T10:50:04.048Z,62.65
2023-08-05T10:52:38.877Z,63.31
2023-08-05T10:55:13.495Z,63.04
2023-08-05T10:57:48.614Z,62.03
2023-08-05T11:00:21.505Z,62.80
2023-08-05T11:02:51.271Z,63.21
2023-08-05T11:05:21.567Z,61.81
2023-08-05T11:07:52.110Z,61.18
2023-08-05T11:10:19.943Z,57.61
2023-08-05T11:12:47.919Z,57.42
2023-08-05T11:15:15.667Z,56.40
2023-08-05T11:17:56.965Z,57.57
2023-08-05T11:20:33.588Z,57.32
2023-08-05T11:23:03.101Z,64.10
2023-08-05T11:25:31.176Z,65.22
2023-08-05T11:27:59.972Z,67.86
2023-08-05T11:30:27.772Z,67.97
2023-08-05T11:32:58.473Z,70.02
2023-08-05T11:35:26.988Z,68.60
2023-08-05T11:37:54.892Z,68.32
2023-08-05T11:40:24.597Z,66.62
2023-08-05T11:42:53.653Z,69.55
2023-08-05T11:45:21.571Z,69.73
2023-08-05T11:47:49.617Z,70.29
2023-08-05T11:50:17.495Z,69.79
2023-08-05T11:53:07.255Z,67.42
2023-08-05T11:55:40.778Z,66.14
2023-08-05T11:58:08.960Z,64.57
2023-08-05T12:00:37.333Z,64.31
2023-08-05T12:03:06.209Z,64.36
2023-08-05T12:05:35.057Z,65.05
2023-08-05T12:08:03.309Z,65.17
2023-08-05T12:10:31.651Z,66.76
2023-08-05T12:13:04.662Z,62.35
2023-08-05T12:15:33.350Z,62.03
2023-08-05T12:18:02.227Z,61.67
2023-08-05T12:20:31.653Z,61.19
2023-08-05T12:23:00.738Z,61.56
2023-08-05T12:25:29.489Z,62.81
2023-08-05T12:27:58.007Z,63.16
2023-08-05T12:30:27.093Z,62.79
2023-08-05T12:32:58.190Z,62.71
2023-08-05T12:35:27.276Z,64.93
2023-08-05T12:37:55.072Z,65.32
2023-08-05T12:40:23.094Z,65.16
2023-08-05T12:42:51.259Z,65.89
2023-08-05T12:45:19.003Z,65.41
2023-08-05T12:47:48.283Z,66.48
2023-08-05T12:50:16.128Z,65.06
2023-08-05T12:52:43.966Z,63.12
2023-08-05T12:55:11.705Z,63.69
2023-08-05T12:57:39.989Z,62.53
2023-08-05T13:00:09.028Z,62.24
2023-08-05T13:02:36.947Z,63.04
2023-08-05T13:05:07.074Z,66.47
2023-08-05T13:07:34.894Z,61.72
2023-08-05T13:10:02.744Z,58.74
2023-08-05T13:12:30.597Z,57.37
2023-08-05T13:14:58.706Z,58.92
2023-08-05T13:17:26.638Z,56.80
2023-08-05T13:19:54.589Z,58.83
2023-08-05T13:22:23.934Z,58.34
2023-08-05T13:24:52.000Z,57.28
2023-08-05T13:27:22.471Z,54.31
2023-08-05T13:29:50.436Z,56.22
2023-08-05T13:32:18.287Z,56.65
2023-08-05T13:34:46.728Z,56.05
2023-08-05T13:37:14.633Z,59.27
2023-08-05T13:39:44.210Z,58.00
2023-08-05T13:42:11.956Z,58.85
2023-08-05T13:44:39.828Z,57.43
2023-08-05T13:47:07.986Z,56.63
2023-08-05T13:49:35.844Z,54.27
2023-08-05T13:52:03.725Z,57.49
2023-08-05T13:54:31.687Z,53.84
2023-08-05T13:57:01.093Z,53.83
2023-08-05T13:59:29.425Z,51.59
2023-08-05T14:01:57.986Z,53.85
2023-08-05T14:04:26.049Z,54.92
2023-08-05T14:06:53.824Z,54.77
2023-08-05T14:09:21.755Z,55.93
2023-08-05T14:11:49.851Z,57.11
2023-08-05T14:14:20.543Z,60.16
2023-08-05T14:16:50.116Z,60.86
2023-08-05T14:19:20.608Z,59.88
2023-08-05T14:21:48.645Z,59.49
2023-08-05T14:24:16.658Z,59.17
2023-08-05T14:26:44.953Z,58.42
2023-08-05T14:29:13.451Z,57.71
2023-08-05T14:31:42.745Z,57.50
2023-08-05T14:34:10.872Z,61.36
2023-08-05T14:36:39.057Z,62.55
2023-08-05T14:39:06.930Z,63.47
2023-08-05T14:41:35.743Z,63.51
2023-08-05T14:44:03.719Z,63.03
2023-08-05T14:46:31.721Z,62.98
2023-08-05T14:49:01.271Z,61.81
2023-08-05T14:51:29.191Z,63.31
2023-08-05T14:53:57.193Z,64.10
2023-08-05T14:56:24.964Z,61.97
2023-08-05T14:58:53.119Z,63.99
2023-08-05T15:01:20.912Z,65.22
2023-08-05T15:03:50.569Z,62.79
2023-08-05T15:06:21.458Z,63.49
2023-08-05T15:08:53.139Z,64.59
2023-08-05T15:11:20.816Z,64.59
2023-08-05T15:13:49.579Z,64.72
2023-08-05T15:16:17.540Z,66.52
2023-08-05T15:18:45.351Z,66.46
2023-08-05T15:21:13.462Z,63.54
2023-08-05T15:23:42.498Z,65.95
2023-08-05T15:26:10.518Z,64.75
2023-08-05T15:28:38.505Z,62.56
2023-08-05T15:31:06.482Z,59.42
2023-08-05T15:33:34.565Z,58.74
2023-08-05T15:36:02.272Z,56.70
2023-08-05T15:38:30.109Z,55.87
2023-08-05T15:41:02.236Z,55.49
2023-08-05T15:43:30.109Z,56.51
2023-08-05T15:45:58.653Z,55.78
2023-08-05T15:48:26.757Z,57.78
2023-08-05T15:50:54.949Z,60.63
2023-08-05T15:53:22.769Z,58.09
2023-08-05T15:55:59.765Z,58.07
2023-08-05T15:58:29.143Z,58.76
2023-08-05T16:01:01.451Z,59.21
2023-08-05T16:03:29.878Z,62.66
2023-08-05T16:06:08.788Z,60.96
2023-08-05T16:08:37.326Z,60.16
2023-08-05T16:11:06.842Z,61.76
2023-08-05T16:13:39.091Z,62.65
2023-08-05T16:16:09.957Z,63.57
2023-08-05T16:18:40.386Z,63.20
2023-08-05T16:21:17.271Z,63.43
2023-08-05T16:23:47.160Z,63.70
2023-08-05T16:26:16.758Z,64.24
2023-08-05T16:28:47.831Z,65.48
2023-08-05T16:31:18.300Z,69.92
2023-08-05T16:33:46.871Z,70.83
2023-08-05T16:36:15.361Z,72.62
2023-08-05T16:38:44.418Z,73.50
2023-08-05T16:41:12.840Z,73.13
2023-08-05T16:43:41.329Z,78.53
2023-08-05T16:46:11.733Z,83.64
2023-08-05T16:48:39.465Z,83.34
2023-08-05T16:51:07.282Z,93.10
2023-08-05T16:53:35.503Z,95.37
2023-08-05T16:56:03.594Z,95.78
2023-08-05T16:58:31.548Z,97.62
2023-08-05T17:00:59.629Z,100.00
2023-08-05T17:03:29.137Z,100.00
2023-08-05T17:05:56.975Z,100.00
2023-08-05T17:08:24.727Z,100.00
2023-08-05T17:10:52.463Z,100.00
2023-08-05T17:13:20.397Z,100.00
2023-08-05T17:15:48.762Z,100.00
2023-08-05T17:18:17.671Z,100.00
2023-08-05T17:20:48.578Z,100.00
2023-08-05T17:23:18.370Z,100.00
2023-08-05T17:25:53.120Z,100.00
2023-08-05T17:28:24.946Z,100.00
2023-08-05T17:30:53.146Z,100.00
2023-08-05T17:33:21.156Z,100.00
2023-08-05T17:35:54.449Z,100.00
2023-08-05T17:38:24.052Z,100.00
2023-08-05T17:40:53.056Z,100.00
2023-08-05T17:43:21.367Z,100.00
2023-08-05T17:45:57.767Z,100.00
2023-08-05T17:48:25.831Z,100.00
2023-08-05T17:50:59.104Z,100.00
2023-08-05T17:53:28.180Z,100.00
2023-08-05T17:55:56.152Z,100.00
2023-08-05T17:58:24.034Z,100.00
2023-08-05T18:00:52.204Z,100.00
2023-08-05T18:03:20.222Z,100.00
2023-08-05T18:05:48.117Z,100.00
2023-08-05T18:08:17.544Z,100.00
2023-08-05T18:10:45.829Z,100.00
2023-08-05T18:13:13.874Z,100.00
2023-08-05T18:15:41.852Z,100.00
2023-08-05T18:18:10.077Z,100.00
2023-08-05T18:20:38.102Z,100.00
2023-08-05T18:23:06.380Z,100.00
2023-08-05T18:25:35.759Z,100.00
2023-08-05T18:28:04.390Z,100.00
2023-08-05T18:30:32.587Z,100.00
2023-08-05T18:33:01.370Z,100.00
2023-08-05T18:35:29.616Z,100.00
2023-08-05T18:37:58.912Z,100.00
2023-08-05T18:40:26.909Z,100.00
2023-08-05T18:42:56.135Z,100.00
2023-08-05T18:45:23.936Z,100.00
2023-08-05T18:47:51.854Z,100.00
2023-08-05T18:50:19.715Z,100.00
2023-08-05T18:52:47.770Z,100.00
2023-08-05T18:55:15.848Z,100.00
2023-08-05T18:57:43.869Z,100.00
2023-08-05T19:00:14.066Z,100.00
2023-08-05T19:02:42.180Z,100.00
2023-08-05T19:05:11.474Z,100.00
2023-08-05T19:07:39.790Z,100.00
2023-08-05T19:10:08.745Z,100.00
2023-08-05T19:12:36.669Z,100.00
2023-08-05T19:15:05.554Z,100.00
2023-08-05T19:17:37.567Z,100.00
2023-08-05T19:20:06.898Z,100.00
2023-08-05T19:22:35.539Z,100.00
2023-08-05T19:25:03.628Z,100.00
2023-08-05T19:27:40.545Z,100.00
2023-08-05T19:30:16.569Z,100.00
2023-08-05T19:32:46.413Z,100.00
2023-08-05T19:35:14.889Z,100.00
2023-08-05T19:37:42.938Z,100.00
2023-08-05T19:40:12.030Z,100.00
2023-08-05T19:42:39.935Z,100.00
2023-08-05T19:45:08.787Z,100.00
2023-08-05T19:47:41.180Z,100.00
2023-08-05T19:50:11.443Z,100.00
2023-08-05T19:52:40.416Z,100.00
2023-08-05T19:55:08.757Z,100.00
2023-08-05T19:57:36.616Z,100.00
2023-08-05T20:00:05.286Z,100.00
2023-08-05T20:02:35.631Z,100.00
2023-08-05T20:05:03.950Z,100.00
2023-08-05T20:07:33.359Z,100.00
2023-08-05T20:10:01.594Z,100.00
2023-08-05T20:12:29.454Z,100.00
2023-08-05T20:14:57.320Z,100.00
2023-08-05T20:17:25.104Z,100.00
2023-08-05T20:19:52.932Z,100.00
2023-08-05T20:22:20.848Z,100.00
2023-08-05T20:24:50.401Z,100.00
2023-08-05T20:27:19.428Z,100.00
2023-08-05T20:29:47.226Z,100.00
2023-08-05T20:32:15.400Z,100.00
2023-08-05T20:34:44.171Z,100.00
2023-08-05T20:37:12.510Z,100.00
2023-08-05T20:39:40.339Z,100.00
2023-08-05T20:42:09.864Z,100.00
2023-08-05T20:44:37.611Z,100.00
2023-08-05T20:47:05.806Z,100.00
2023-08-05T20:49:33.820Z,100.00
2023-08-05T20:52:01.894Z,100.00
2023-08-05T20:54:29.745Z,100.00
2023-08-05T20:56:58.211Z,100.00
2023-08-05T20:59:27.904Z,100.00
2023-08-05T21:01:56.013Z,100.00
2023-08-05T21:04:24.525Z,100.00
2023-08-05T21:06:54.706Z,100.00
2023-08-05T21:09:23.041Z,100.00
2023-08-05T21:11:51.167Z,100.00
2023-08-05T21:14:19.428Z,100.00
2023-08-05T21:16:50.132Z,100.00
2023-08-05T21:19:18.137Z,100.00
2023-08-05T21:21:46.056Z,100.00
2023-08-05T21:24:13.957Z,100.00
2023-08-05T21:26:41.907Z,100.00
2023-08-05T21:29:09.940Z,100.00
2023-08-05T21:31:38.120Z,100.00
2023-08-05T21:34:07.979Z,100.00
2023-08-05T21:36:36.028Z,100.00
2023-08-05T21:39:04.268Z,100.00
2023-08-05T21:41:32.470Z,100.00
2023-08-05T21:44:00.233Z,100.00
2023-08-05T21:46:28.005Z,100.00
2023-08-05T21:48:55.903Z,100.00
2023-08-05T21:51:25.743Z,100.00
2023-08-05T21:53:53.902Z,100.00
2023-08-05T21:56:22.060Z,100.00
2023-08-05T21:58:50.007Z,100.00
2023-08-05T22:01:17.801Z,100.00
2023-08-05T22:03:45.608Z,100.00
2023-08-05T22:06:13.617Z,100.00
2023-08-05T22:08:42.897Z,100.00
2023-08-05T22:11:11.493Z,100.00
2023-08-05T22:13:39.852Z,100.00
2023-08-05T22:16:09.051Z,100.00
2023-08-05T22:18:37.036Z,100.00
2023-08-05T22:21:05.194Z,100.00
2023-08-05T22:23:33.805Z,100.00
2023-08-05T22:26:08.158Z,100.00
2023-08-05T22:28:35.965Z,100.00
2023-08-05T22:31:03.701Z,100.00
2023-08-05T22:33:31.419Z,100.00
2023-08-05T22:35:59.237Z,100.00
2023-08-05T22:38:27.019Z,100.00
2023-08-05T22:40:55.205Z,100.00
2023-08-05T22:43:24.380Z,100.00
2023-08-05T22:46:01.870Z,100.00
2023-08-05T22:48:31.093Z,100.00
2023-08-05T22:50:59.145Z,100.00
2023-08-05T22:53:27.559Z,100.00
2023-08-05T22:55:56.907Z,100.00
2023-08-05T22:58:26.300Z,100.00
2023-08-05T23:01:00.687Z,100.00
2023-08-05T23:03:28.924Z,100.00
2023-08-05T23:05:58.111Z,100.00
2023-08-05T23:08:26.010Z,100.00
2023-08-05T23:10:53.733Z,100.00
2023-08-05T23:13:21.935Z,100.00
2023-08-05T23:15:51.146Z,100.00
2023-08-05T23:18:18.864Z,100.00
2023-08-05T23:20:47.056Z,100.00
2023-08-05T23:23:14.791Z,100.00
2023-08-05T23:25:42.549Z,100.00
2023-08-05T23:28:10.438Z,100.00
2023-08-05T23:30:38.458Z,100.00
2023-08-05T23:33:07.963Z,100.00
2023-08-05T23:35:39.392Z,100.00
2023-08-05T23:38:07.371Z,100.00
2023-08-05T23:40:35.437Z,100.00
2023-08-05T23:43:03.172Z,100.00
2023-08-05T23:45:30.898Z,100.00
2023-08-05T23:47:58.723Z,100.00
2023-08-05T23:50:28.002Z,100.00
2023-08-05T23:52:55.800Z,100.00
2023-08-05T23:55:23.682Z,100.00
2023-08-05T23:57:51.534Z,100.00
